sensor_id;sensor_type;location;lat;lon;timestamp;P1;durP1;ratioP1;P2;durP2;ratioP2
58091;SDS011;43896;48.178;11.578;2024-02-23T00:01:55;0.10;;;0.10;;
58091;SDS011;43896;48.178;11.578;2024-02-23T00:04:21;0.10;;;0.10;;
58091;SDS011;43896;48.178;11.578;2024-02-23T00:06:46;0.13;;;0.10;;
58091;SDS011;43896;48.178;11.578;2024-02-23T00:09:11;1.10;;;0.30;;
58091;SDS011;43896;48.178;11.578;2024-02-23T00:11:40;0.80;;;0.10;;
58091;SDS011;43896;48.178;11.578;2024-02-23T00:14:09;0.30;;;0.10;;
58091;SDS011;43896;48.178;11.578;2024-02-23T00:16:39;0.68;;;0.20;;
58091;SDS011;43896;48.178;11.578;2024-02-23T00:19:05;0.43;;;0.20;;
58091;SDS011;43896;48.178;11.578;2024-02-23T00:21:31;0.22;;;0.10;;
58091;SDS011;43896;48.178;11.578;2024-02-23T00:23:56;0.10;;;0.10;;
58091;SDS011;43896;48.178;11.578;2024-02-23T00:26:21;0.20;;;0.10;;
58091;SDS011;43896;48.178;11.578;2024-02-23T00:28:47;0.10;;;0.05;;
58091;SDS011;43896;48.178;11.578;2024-02-23T00:31:12;0.13;;;0.05;;
58091;SDS011;43896;48.178;11.578;2024-02-23T00:33:38;0.00;;;0.00;;
58091;SDS011;43896;48.178;11.578;2024-02-23T00:36:07;0.20;;;0.10;;
58091;SDS011;43896;48.178;11.578;2024-02-23T00:38:32;0.40;;;0.10;;
58091;SDS011;43896;48.178;11.578;2024-02-23T00:40:58;0.10;;;0.10;;
58091;SDS011;43896;48.178;11.578;2024-02-23T00:43:23;0.20;;;0.10;;
58091;SDS011;43896;48.178;11.578;2024-02-23T00:45:48;0.05;;;0.00;;
58091;SDS011;43896;48.178;11.578;2024-02-23T00:48:14;0.10;;;0.10;;
58091;SDS011;43896;48.178;11.578;2024-02-23T00:50:39;0.45;;;0.10;;
58091;SDS011;43896;48.178;11.578;2024-02-23T00:53:05;0.10;;;0.10;;
58091;SDS011;43896;48.178;11.578;2024-02-23T00:55:30;0.20;;;0.00;;
58091;SDS011;43896;48.178;11.578;2024-02-23T00:57:55;0.68;;;0.10;;
58091;SDS011;43896;48.178;11.578;2024-02-23T01:00:21;0.40;;;0.10;;
58091;SDS011;43896;48.178;11.578;2024-02-23T01:02:46;0.22;;;0.10;;
58091;SDS011;43896;48.178;11.578;2024-02-23T01:05:12;0.20;;;0.10;;
58091;SDS011;43896;48.178;11.578;2024-02-23T01:07:38;0.20;;;0.10;;
58091;SDS011;43896;48.178;11.578;2024-02-23T01:10:03;0.63;;;0.10;;
58091;SDS011;43896;48.178;11.578;2024-02-23T01:12:29;0.47;;;0.10;;
58091;SDS011;43896;48.178;11.578;2024-02-23T01:14:55;0.00;;;0.00;;
58091;SDS011;43896;48.178;11.578;2024-02-23T01:17:20;0.13;;;0.10;;
58091;SDS011;43896;48.178;11.578;2024-02-23T01:19:46;0.93;;;0.10;;
58091;SDS011;43896;48.178;11.578;2024-02-23T01:22:11;0.43;;;0.10;;
58091;SDS011;43896;48.178;11.578;2024-02-23T01:24:37;0.13;;;0.10;;
58091;SDS011;43896;48.178;11.578;2024-02-23T01:27:02;0.22;;;0.10;;
58091;SDS011;43896;48.178;11.578;2024-02-23T01:29:28;0.22;;;0.10;;
58091;SDS011;43896;48.178;11.578;2024-02-23T01:31:53;0.35;;;0.10;;
58091;SDS011;43896;48.178;11.578;2024-02-23T01:34:21;0.85;;;0.10;;
58091;SDS011;43896;48.178;11.578;2024-02-23T01:36:47;0.20;;;0.10;;
58091;SDS011;43896;48.178;11.578;2024-02-23T01:39:12;0.52;;;0.10;;
58091;SDS011;43896;48.178;11.578;2024-02-23T01:41:38;0.15;;;0.08;;
58091;SDS011;43896;48.178;11.578;2024-02-23T01:44:04;0.17;;;0.10;;
58091;SDS011;43896;48.178;11.578;2024-02-23T01:46:29;0.85;;;0.10;;
58091;SDS011;43896;48.178;11.578;2024-02-23T01:48:55;0.20;;;0.10;;
58091;SDS011;43896;48.178;11.578;2024-02-23T01:51:21;0.00;;;0.00;;
58091;SDS011;43896;48.178;11.578;2024-02-23T01:53:47;0.43;;;0.10;;
58091;SDS011;43896;48.178;11.578;2024-02-23T01:56:12;0.20;;;0.00;;
58091;SDS011;43896;48.178;11.578;2024-02-23T01:58:43;0.00;;;0.00;;
58091;SDS011;43896;48.178;11.578;2024-02-23T02:01:09;1.58;;;0.10;;
58091;SDS011;43896;48.178;11.578;2024-02-23T02:03:35;0.10;;;0.10;;
58091;SDS011;43896;48.178;11.578;2024-02-23T02:06:03;0.10;;;0.00;;
58091;SDS011;43896;48.178;11.578;2024-02-23T02:08:29;0.25;;;0.10;;
58091;SDS011;43896;48.178;11.578;2024-02-23T02:10:55;0.05;;;0.00;;
58091;SDS011;43896;48.178;11.578;2024-02-23T02:13:20;0.10;;;0.00;;
58091;SDS011;43896;48.178;11.578;2024-02-23T02:15:45;0.08;;;0.05;;
58091;SDS011;43896;48.178;11.578;2024-02-23T02:18:11;0.00;;;0.00;;
58091;SDS011;43896;48.178;11.578;2024-02-23T02:20:36;0.10;;;0.00;;
58091;SDS011;43896;48.178;11.578;2024-02-23T02:23:05;0.00;;;0.00;;
58091;SDS011;43896;48.178;11.578;2024-02-23T02:25:32;0.17;;;0.05;;
58091;SDS011;43896;48.178;11.578;2024-02-23T02:27:57;0.28;;;0.00;;
58091;SDS011;43896;48.178;11.578;2024-02-23T02:30:23;0.10;;;0.00;;
58091;SDS011;43896;48.178;11.578;2024-02-23T02:32:48;0.20;;;0.03;;
58091;SDS011;43896;48.178;11.578;2024-02-23T02:35:14;0.03;;;0.00;;
58091;SDS011;43896;48.178;11.578;2024-02-23T02:37:39;0.20;;;0.10;;
58091;SDS011;43896;48.178;11.578;2024-02-23T02:40:05;0.32;;;0.10;;
58091;SDS011;43896;48.178;11.578;2024-02-23T02:42:31;0.55;;;0.10;;
58091;SDS011;43896;48.178;11.578;2024-02-23T02:44:56;0.00;;;0.00;;
58091;SDS011;43896;48.178;11.578;2024-02-23T02:47:22;0.08;;;0.00;;
58091;SDS011;43896;48.178;11.578;2024-02-23T02:49:48;0.22;;;0.10;;
58091;SDS011;43896;48.178;11.578;2024-02-23T02:52:13;0.30;;;0.10;;
58091;SDS011;43896;48.178;11.578;2024-02-23T02:54:39;0.05;;;0.03;;
58091;SDS011;43896;48.178;11.578;2024-02-23T02:57:04;0.17;;;0.10;;
58091;SDS011;43896;48.178;11.578;2024-02-23T02:59:33;0.10;;;0.00;;
58091;SDS011;43896;48.178;11.578;2024-02-23T03:04:25;0.08;;;0.08;;
58091;SDS011;43896;48.178;11.578;2024-02-23T03:06:50;0.00;;;0.00;;
58091;SDS011;43896;48.178;11.578;2024-02-23T03:09:16;0.90;;;0.10;;
58091;SDS011;43896;48.178;11.578;2024-02-23T03:11:41;1.23;;;0.10;;
58091;SDS011;43896;48.178;11.578;2024-02-23T03:14:06;0.30;;;0.10;;
58091;SDS011;43896;48.178;11.578;2024-02-23T03:16:32;0.10;;;0.10;;
58091;SDS011;43896;48.178;11.578;2024-02-23T03:18:59;1.65;;;0.17;;
58091;SDS011;43896;48.178;11.578;2024-02-23T03:21:24;0.20;;;0.10;;
58091;SDS011;43896;48.178;11.578;2024-02-23T03:23:50;0.00;;;0.00;;
58091;SDS011;43896;48.178;11.578;2024-02-23T03:26:15;0.30;;;0.10;;
58091;SDS011;43896;48.178;11.578;2024-02-23T03:28:42;1.27;;;0.10;;
58091;SDS011;43896;48.178;11.578;2024-02-23T03:31:07;0.10;;;0.10;;
58091;SDS011;43896;48.178;11.578;2024-02-23T03:33:33;0.75;;;0.17;;
58091;SDS011;43896;48.178;11.578;2024-02-23T03:35:58;0.82;;;0.10;;
58091;SDS011;43896;48.178;11.578;2024-02-23T03:38:24;0.35;;;0.10;;
58091;SDS011;43896;48.178;11.578;2024-02-23T03:40:49;0.28;;;0.10;;
58091;SDS011;43896;48.178;11.578;2024-02-23T03:43:14;0.52;;;0.20;;
58091;SDS011;43896;48.178;11.578;2024-02-23T03:45:40;0.47;;;0.10;;
58091;SDS011;43896;48.178;11.578;2024-02-23T03:48:05;0.35;;;0.20;;
58091;SDS011;43896;48.178;11.578;2024-02-23T03:50:31;0.25;;;0.10;;
58091;SDS011;43896;48.178;11.578;2024-02-23T03:52:57;0.60;;;0.20;;
58091;SDS011;43896;48.178;11.578;2024-02-23T03:55:22;0.68;;;0.20;;
58091;SDS011;43896;48.178;11.578;2024-02-23T03:57:48;2.08;;;0.20;;
58091;SDS011;43896;48.178;11.578;2024-02-23T04:00:13;0.38;;;0.15;;
58091;SDS011;43896;48.178;11.578;2024-02-23T04:02:39;0.43;;;0.10;;
58091;SDS011;43896;48.178;11.578;2024-02-23T04:05:05;0.30;;;0.20;;
58091;SDS011;43896;48.178;11.578;2024-02-23T04:07:31;1.08;;;0.28;;
58091;SDS011;43896;48.178;11.578;2024-02-23T04:09:56;1.88;;;0.32;;
58091;SDS011;43896;48.178;11.578;2024-02-23T04:12:22;1.00;;;0.30;;
58091;SDS011;43896;48.178;11.578;2024-02-23T04:14:47;0.93;;;0.47;;
58091;SDS011;43896;48.178;11.578;2024-02-23T04:17:13;0.22;;;0.20;;
58091;SDS011;43896;48.178;11.578;2024-02-23T04:19:39;1.30;;;0.40;;
58091;SDS011;43896;48.178;11.578;2024-02-23T04:22:05;0.90;;;0.30;;
58091;SDS011;43896;48.178;11.578;2024-02-23T04:24:33;1.17;;;0.32;;
58091;SDS011;43896;48.178;11.578;2024-02-23T04:26:59;1.13;;;0.40;;
58091;SDS011;43896;48.178;11.578;2024-02-23T04:29:24;1.08;;;0.30;;
58091;SDS011;43896;48.178;11.578;2024-02-23T04:31:50;1.70;;;0.50;;
58091;SDS011;43896;48.178;11.578;2024-02-23T04:34:15;1.63;;;0.30;;
58091;SDS011;43896;48.178;11.578;2024-02-23T04:36:43;0.82;;;0.30;;
58091;SDS011;43896;48.178;11.578;2024-02-23T04:39:08;0.63;;;0.25;;
58091;SDS011;43896;48.178;11.578;2024-02-23T04:41:34;0.70;;;0.28;;
58091;SDS011;43896;48.178;11.578;2024-02-23T04:43:59;0.80;;;0.28;;
58091;SDS011;43896;48.178;11.578;2024-02-23T04:46:26;0.40;;;0.20;;
58091;SDS011;43896;48.178;11.578;2024-02-23T04:48:52;0.20;;;0.10;;
58091;SDS011;43896;48.178;11.578;2024-02-23T04:51:17;0.98;;;0.20;;
58091;SDS011;43896;48.178;11.578;2024-02-23T04:53:43;0.10;;;0.10;;
58091;SDS011;43896;48.178;11.578;2024-02-23T04:56:09;0.17;;;0.10;;
58091;SDS011;43896;48.178;11.578;2024-02-23T04:58:34;2.05;;;0.30;;
58091;SDS011;43896;48.178;11.578;2024-02-23T05:01:00;0.90;;;0.20;;
58091;SDS011;43896;48.178;11.578;2024-02-23T05:03:25;0.30;;;0.10;;
58091;SDS011;43896;48.178;11.578;2024-02-23T05:05:51;1.30;;;0.20;;
58091;SDS011;43896;48.178;11.578;2024-02-23T05:08:21;0.73;;;0.20;;
58091;SDS011;43896;48.178;11.578;2024-02-23T05:10:49;1.60;;;0.10;;
58091;SDS011;43896;48.178;11.578;2024-02-23T05:13:15;0.50;;;0.10;;
58091;SDS011;43896;48.178;11.578;2024-02-23T05:15:40;0.10;;;0.08;;
58091;SDS011;43896;48.178;11.578;2024-02-23T05:18:05;0.85;;;0.10;;
58091;SDS011;43896;48.178;11.578;2024-02-23T05:20:31;0.40;;;0.20;;
58091;SDS011;43896;48.178;11.578;2024-02-23T05:22:56;1.60;;;0.20;;
58091;SDS011;43896;48.178;11.578;2024-02-23T05:25:22;0.90;;;0.20;;
58091;SDS011;43896;48.178;11.578;2024-02-23T05:27:47;0.17;;;0.10;;
58091;SDS011;43896;48.178;11.578;2024-02-23T05:30:13;0.77;;;0.20;;
58091;SDS011;43896;48.178;11.578;2024-02-23T05:32:38;0.15;;;0.10;;
58091;SDS011;43896;48.178;11.578;2024-02-23T05:35:04;0.40;;;0.10;;
58091;SDS011;43896;48.178;11.578;2024-02-23T05:37:30;0.43;;;0.10;;
58091;SDS011;43896;48.178;11.578;2024-02-23T05:39:55;0.50;;;0.13;;
58091;SDS011;43896;48.178;11.578;2024-02-23T05:42:21;0.32;;;0.20;;
58091;SDS011;43896;48.178;11.578;2024-02-23T05:44:46;0.38;;;0.20;;
58091;SDS011;43896;48.178;11.578;2024-02-23T05:47:13;0.75;;;0.30;;
58091;SDS011;43896;48.178;11.578;2024-02-23T05:49:39;0.30;;;0.10;;
58091;SDS011;43896;48.178;11.578;2024-02-23T05:52:05;1.33;;;0.25;;
58091;SDS011;43896;48.178;11.578;2024-02-23T05:54:30;0.57;;;0.20;;
58091;SDS011;43896;48.178;11.578;2024-02-23T05:56:55;0.47;;;0.20;;
58091;SDS011;43896;48.178;11.578;2024-02-23T05:59:21;1.00;;;0.30;;
58091;SDS011;43896;48.178;11.578;2024-02-23T06:01:46;0.63;;;0.20;;
58091;SDS011;43896;48.178;11.578;2024-02-23T06:04:12;0.32;;;0.13;;
58091;SDS011;43896;48.178;11.578;2024-02-23T06:06:40;0.50;;;0.20;;
58091;SDS011;43896;48.178;11.578;2024-02-23T06:09:06;0.45;;;0.13;;
58091;SDS011;43896;48.178;11.578;2024-02-23T06:11:32;0.93;;;0.10;;
58091;SDS011;43896;48.178;11.578;2024-02-23T06:13:57;0.38;;;0.20;;
58091;SDS011;43896;48.178;11.578;2024-02-23T06:16:23;0.85;;;0.30;;
58091;SDS011;43896;48.178;11.578;2024-02-23T06:18:48;0.82;;;0.20;;
58091;SDS011;43896;48.178;11.578;2024-02-23T06:21:16;0.82;;;0.30;;
58091;SDS011;43896;48.178;11.578;2024-02-23T06:23:45;1.38;;;0.38;;
58091;SDS011;43896;48.178;11.578;2024-02-23T06:26:11;2.10;;;0.63;;
58091;SDS011;43896;48.178;11.578;2024-02-23T06:28:36;0.77;;;0.20;;
58091;SDS011;43896;48.178;11.578;2024-02-23T06:31:05;0.35;;;0.20;;
58091;SDS011;43896;48.178;11.578;2024-02-23T06:33:31;0.50;;;0.22;;
58091;SDS011;43896;48.178;11.578;2024-02-23T06:35:56;1.38;;;0.30;;
58091;SDS011;43896;48.178;11.578;2024-02-23T06:38:22;0.70;;;0.28;;
58091;SDS011;43896;48.178;11.578;2024-02-23T06:40:47;0.60;;;0.20;;
58091;SDS011;43896;48.178;11.578;2024-02-23T06:43:12;0.73;;;0.20;;
58091;SDS011;43896;48.178;11.578;2024-02-23T06:45:38;0.63;;;0.30;;
58091;SDS011;43896;48.178;11.578;2024-02-23T06:48:03;1.35;;;0.35;;
58091;SDS011;43896;48.178;11.578;2024-02-23T06:50:29;2.63;;;0.30;;
58091;SDS011;43896;48.178;11.578;2024-02-23T06:52:57;0.60;;;0.30;;
58091;SDS011;43896;48.178;11.578;2024-02-23T06:55:23;1.40;;;0.20;;
58091;SDS011;43896;48.178;11.578;2024-02-23T06:57:48;0.80;;;0.20;;
58091;SDS011;43896;48.178;11.578;2024-02-23T07:00:14;0.60;;;0.30;;
58091;SDS011;43896;48.178;11.578;2024-02-23T07:02:40;1.20;;;0.40;;
58091;SDS011;43896;48.178;11.578;2024-02-23T07:05:05;1.73;;;0.30;;
58091;SDS011;43896;48.178;11.578;2024-02-23T07:07:34;0.40;;;0.20;;
58091;SDS011;43896;48.178;11.578;2024-02-23T07:10:00;1.38;;;0.28;;
58091;SDS011;43896;48.178;11.578;2024-02-23T07:12:25;0.70;;;0.30;;
58091;SDS011;43896;48.178;11.578;2024-02-23T07:14:57;0.65;;;0.30;;
58091;SDS011;43896;48.178;11.578;2024-02-23T07:17:22;0.57;;;0.30;;
58091;SDS011;43896;48.178;11.578;2024-02-23T07:19:48;1.23;;;0.30;;
58091;SDS011;43896;48.178;11.578;2024-02-23T07:22:15;0.95;;;0.20;;
58091;SDS011;43896;48.178;11.578;2024-02-23T07:24:43;1.73;;;0.30;;
58091;SDS011;43896;48.178;11.578;2024-02-23T07:27:08;3.03;;;1.10;;
58091;SDS011;43896;48.178;11.578;2024-02-23T07:29:34;2.30;;;0.50;;
58091;SDS011;43896;48.178;11.578;2024-02-23T07:31:59;3.33;;;0.40;;
58091;SDS011;43896;48.178;11.578;2024-02-23T07:34:25;1.40;;;0.40;;
58091;SDS011;43896;48.178;11.578;2024-02-23T07:36:53;1.45;;;0.30;;
58091;SDS011;43896;48.178;11.578;2024-02-23T07:39:19;2.25;;;0.30;;
58091;SDS011;43896;48.178;11.578;2024-02-23T07:41:45;0.75;;;0.30;;
58091;SDS011;43896;48.178;11.578;2024-02-23T07:44:11;1.70;;;0.30;;
58091;SDS011;43896;48.178;11.578;2024-02-23T07:46:36;2.08;;;0.40;;
58091;SDS011;43896;48.178;11.578;2024-02-23T07:49:04;1.83;;;0.50;;
58091;SDS011;43896;48.178;11.578;2024-02-23T07:51:31;1.25;;;0.30;;
58091;SDS011;43896;48.178;11.578;2024-02-23T07:53:56;3.25;;;0.65;;
58091;SDS011;43896;48.178;11.578;2024-02-23T07:56:22;2.20;;;0.40;;
58091;SDS011;43896;48.178;11.578;2024-02-23T07:58:47;1.05;;;0.30;;
58091;SDS011;43896;48.178;11.578;2024-02-23T08:01:15;1.75;;;0.30;;
58091;SDS011;43896;48.178;11.578;2024-02-23T08:03:41;1.33;;;0.30;;
58091;SDS011;43896;48.178;11.578;2024-02-23T08:06:06;1.60;;;0.40;;
58091;SDS011;43896;48.178;11.578;2024-02-23T08:08:32;1.40;;;0.40;;
58091;SDS011;43896;48.178;11.578;2024-02-23T08:11:00;1.52;;;0.50;;
58091;SDS011;43896;48.178;11.578;2024-02-23T08:13:26;1.45;;;0.30;;
58091;SDS011;43896;48.178;11.578;2024-02-23T08:15:52;1.40;;;0.40;;
58091;SDS011;43896;48.178;11.578;2024-02-23T08:18:17;1.38;;;0.30;;
58091;SDS011;43896;48.178;11.578;2024-02-23T08:20:42;3.05;;;0.50;;
58091;SDS011;43896;48.178;11.578;2024-02-23T08:23:08;1.38;;;0.50;;
58091;SDS011;43896;48.178;11.578;2024-02-23T08:25:34;0.98;;;0.30;;
58091;SDS011;43896;48.178;11.578;2024-02-23T08:28:01;2.83;;;0.47;;
58091;SDS011;43896;48.178;11.578;2024-02-23T08:30:26;1.38;;;0.38;;
58091;SDS011;43896;48.178;11.578;2024-02-23T08:32:52;1.52;;;0.52;;
58091;SDS011;43896;48.178;11.578;2024-02-23T08:35:17;3.17;;;0.47;;
58091;SDS011;43896;48.178;11.578;2024-02-23T08:37:43;2.40;;;0.30;;
58091;SDS011;43896;48.178;11.578;2024-02-23T08:40:08;1.15;;;0.45;;
58091;SDS011;43896;48.178;11.578;2024-02-23T08:42:34;2.80;;;0.90;;
58091;SDS011;43896;48.178;11.578;2024-02-23T08:45:00;1.77;;;0.30;;
58091;SDS011;43896;48.178;11.578;2024-02-23T08:47:25;1.30;;;0.30;;
58091;SDS011;43896;48.178;11.578;2024-02-23T08:49:56;2.00;;;0.40;;
58091;SDS011;43896;48.178;11.578;2024-02-23T08:52:22;1.48;;;0.35;;
58091;SDS011;43896;48.178;11.578;2024-02-23T08:54:47;1.23;;;0.30;;
58091;SDS011;43896;48.178;11.578;2024-02-23T08:57:13;0.98;;;0.30;;
58091;SDS011;43896;48.178;11.578;2024-02-23T08:59:42;2.80;;;0.50;;
58091;SDS011;43896;48.178;11.578;2024-02-23T09:02:07;1.30;;;0.30;;
58091;SDS011;43896;48.178;11.578;2024-02-23T09:04:34;2.78;;;0.52;;
58091;SDS011;43896;48.178;11.578;2024-02-23T09:07:00;1.38;;;0.40;;
58091;SDS011;43896;48.178;11.578;2024-02-23T09:09:26;1.80;;;0.40;;
58091;SDS011;43896;48.178;11.578;2024-02-23T09:11:51;2.70;;;0.50;;
58091;SDS011;43896;48.178;11.578;2024-02-23T09:14:17;2.75;;;0.40;;
58091;SDS011;43896;48.178;11.578;2024-02-23T09:16:42;2.03;;;0.50;;
58091;SDS011;43896;48.178;11.578;2024-02-23T09:19:07;1.55;;;0.40;;
58091;SDS011;43896;48.178;11.578;2024-02-23T09:21:33;1.02;;;0.32;;
58091;SDS011;43896;48.178;11.578;2024-02-23T09:23:58;2.28;;;0.50;;
58091;SDS011;43896;48.178;11.578;2024-02-23T09:26:24;1.98;;;0.40;;
58091;SDS011;43896;48.178;11.578;2024-02-23T09:28:49;2.85;;;0.43;;
58091;SDS011;43896;48.178;11.578;2024-02-23T09:31:15;3.53;;;0.40;;
58091;SDS011;43896;48.178;11.578;2024-02-23T09:33:40;2.60;;;0.50;;
58091;SDS011;43896;48.178;11.578;2024-02-23T09:36:06;1.67;;;0.52;;
58091;SDS011;43896;48.178;11.578;2024-02-23T09:38:31;1.15;;;0.30;;
58091;SDS011;43896;48.178;11.578;2024-02-23T09:40:57;3.38;;;0.40;;
58091;SDS011;43896;48.178;11.578;2024-02-23T09:43:24;1.13;;;0.35;;
58091;SDS011;43896;48.178;11.578;2024-02-23T09:45:55;2.28;;;0.57;;
58091;SDS011;43896;48.178;11.578;2024-02-23T09:48:22;3.10;;;0.60;;
58091;SDS011;43896;48.178;11.578;2024-02-23T09:50:48;3.55;;;0.50;;
58091;SDS011;43896;48.178;11.578;2024-02-23T09:53:15;2.20;;;0.73;;
58091;SDS011;43896;48.178;11.578;2024-02-23T09:55:42;2.22;;;0.30;;
58091;SDS011;43896;48.178;11.578;2024-02-23T09:58:10;1.10;;;0.30;;
58091;SDS011;43896;48.178;11.578;2024-02-23T10:00:38;2.70;;;0.40;;
58091;SDS011;43896;48.178;11.578;2024-02-23T10:03:04;2.88;;;0.57;;
58091;SDS011;43896;48.178;11.578;2024-02-23T10:05:31;3.53;;;0.60;;
58091;SDS011;43896;48.178;11.578;2024-02-23T10:07:59;1.98;;;0.38;;
58091;SDS011;43896;48.178;11.578;2024-02-23T10:10:29;2.33;;;0.50;;
58091;SDS011;43896;48.178;11.578;2024-02-23T10:12:58;2.58;;;0.60;;
58091;SDS011;43896;48.178;11.578;2024-02-23T10:15:24;2.42;;;0.50;;
58091;SDS011;43896;48.178;11.578;2024-02-23T10:17:50;1.15;;;0.30;;
58091;SDS011;43896;48.178;11.578;2024-02-23T10:20:16;1.42;;;0.28;;
58091;SDS011;43896;48.178;11.578;2024-02-23T10:22:42;1.63;;;0.25;;
58091;SDS011;43896;48.178;11.578;2024-02-23T10:25:09;0.70;;;0.20;;
58091;SDS011;43896;48.178;11.578;2024-02-23T10:27:34;1.85;;;0.50;;
58091;SDS011;43896;48.178;11.578;2024-02-23T10:29:59;3.03;;;0.40;;
58091;SDS011;43896;48.178;11.578;2024-02-23T10:32:25;1.73;;;0.32;;
58091;SDS011;43896;48.178;11.578;2024-02-23T10:34:55;2.28;;;0.30;;
58091;SDS011;43896;48.178;11.578;2024-02-23T10:37:29;1.45;;;0.20;;
58091;SDS011;43896;48.178;11.578;2024-02-23T10:39:56;0.90;;;0.47;;
58091;SDS011;43896;48.178;11.578;2024-02-23T10:42:23;1.27;;;0.30;;
58091;SDS011;43896;48.178;11.578;2024-02-23T10:44:50;1.90;;;0.45;;
58091;SDS011;43896;48.178;11.578;2024-02-23T10:47:16;2.65;;;0.50;;
58091;SDS011;43896;48.178;11.578;2024-02-23T10:49:41;2.83;;;0.40;;
58091;SDS011;43896;48.178;11.578;2024-02-23T10:52:10;2.43;;;0.40;;
58091;SDS011;43896;48.178;11.578;2024-02-23T10:54:38;1.30;;;0.40;;
58091;SDS011;43896;48.178;11.578;2024-02-23T10:57:04;1.60;;;0.40;;
58091;SDS011;43896;48.178;11.578;2024-02-23T10:59:30;2.08;;;0.40;;
58091;SDS011;43896;48.178;11.578;2024-02-23T11:01:56;1.17;;;0.30;;
58091;SDS011;43896;48.178;11.578;2024-02-23T11:04:24;1.45;;;0.35;;
58091;SDS011;43896;48.178;11.578;2024-02-23T11:06:51;2.33;;;0.40;;
58091;SDS011;43896;48.178;11.578;2024-02-23T11:09:20;1.55;;;0.30;;
58091;SDS011;43896;48.178;11.578;2024-02-23T11:11:59;1.60;;;0.47;;
58091;SDS011;43896;48.178;11.578;2024-02-23T11:14:36;3.25;;;0.50;;
58091;SDS011;43896;48.178;11.578;2024-02-23T11:17:03;1.85;;;0.40;;
58091;SDS011;43896;48.178;11.578;2024-02-23T11:19:35;1.23;;;0.40;;
58091;SDS011;43896;48.178;11.578;2024-02-23T11:22:03;2.00;;;0.52;;
58091;SDS011;43896;48.178;11.578;2024-02-23T11:24:29;2.03;;;0.30;;
58091;SDS011;43896;48.178;11.578;2024-02-23T11:26:59;2.33;;;0.40;;
58091;SDS011;43896;48.178;11.578;2024-02-23T11:29:32;1.52;;;0.30;;
58091;SDS011;43896;48.178;11.578;2024-02-23T11:31:59;1.40;;;0.30;;
58091;SDS011;43896;48.178;11.578;2024-02-23T11:34:27;2.05;;;0.50;;
58091;SDS011;43896;48.178;11.578;2024-02-23T11:36:53;1.08;;;0.40;;
58091;SDS011;43896;48.178;11.578;2024-02-23T11:39:19;1.35;;;0.30;;
58091;SDS011;43896;48.178;11.578;2024-02-23T11:41:44;1.92;;;0.40;;
58091;SDS011;43896;48.178;11.578;2024-02-23T11:44:14;2.28;;;0.30;;
58091;SDS011;43896;48.178;11.578;2024-02-23T11:46:42;0.68;;;0.25;;
58091;SDS011;43896;48.178;11.578;2024-02-23T11:49:07;2.50;;;0.68;;
58091;SDS011;43896;48.178;11.578;2024-02-23T11:51:32;2.08;;;0.40;;
58091;SDS011;43896;48.178;11.578;2024-02-23T11:53:58;2.13;;;0.40;;
58091;SDS011;43896;48.178;11.578;2024-02-23T11:56:25;1.67;;;0.40;;
58091;SDS011;43896;48.178;11.578;2024-02-23T11:58:51;1.60;;;0.30;;
58091;SDS011;43896;48.178;11.578;2024-02-23T12:01:16;3.03;;;0.40;;
58091;SDS011;43896;48.178;11.578;2024-02-23T12:03:42;0.70;;;0.30;;
58091;SDS011;43896;48.178;11.578;2024-02-23T12:06:10;2.28;;;0.45;;
58091;SDS011;43896;48.178;11.578;2024-02-23T12:08:35;2.58;;;0.50;;
58091;SDS011;43896;48.178;11.578;2024-02-23T12:11:07;3.45;;;0.52;;
58091;SDS011;43896;48.178;11.578;2024-02-23T12:13:34;1.23;;;0.40;;
58091;SDS011;43896;48.178;11.578;2024-02-23T12:16:01;0.73;;;0.30;;
58091;SDS011;43896;48.178;11.578;2024-02-23T12:18:27;1.35;;;0.30;;
58091;SDS011;43896;48.178;11.578;2024-02-23T12:21:04;1.20;;;0.30;;
58091;SDS011;43896;48.178;11.578;2024-02-23T12:23:44;2.97;;;0.55;;
58091;SDS011;43896;48.178;11.578;2024-02-23T12:26:10;2.42;;;0.30;;
58091;SDS011;43896;48.178;11.578;2024-02-23T12:28:38;3.30;;;0.40;;
58091;SDS011;43896;48.178;11.578;2024-02-23T12:31:04;1.80;;;0.47;;
58091;SDS011;43896;48.178;11.578;2024-02-23T12:33:37;2.05;;;0.30;;
58091;SDS011;43896;48.178;11.578;2024-02-23T12:36:05;2.13;;;0.65;;
58091;SDS011;43896;48.178;11.578;2024-02-23T12:38:32;1.30;;;0.47;;
58091;SDS011;43896;48.178;11.578;2024-02-23T12:40:57;1.33;;;0.30;;
58091;SDS011;43896;48.178;11.578;2024-02-23T12:43:24;2.17;;;0.40;;
58091;SDS011;43896;48.178;11.578;2024-02-23T12:45:50;0.73;;;0.40;;
58091;SDS011;43896;48.178;11.578;2024-02-23T12:48:16;2.50;;;0.50;;
58091;SDS011;43896;48.178;11.578;2024-02-23T12:50:42;2.10;;;0.50;;
58091;SDS011;43896;48.178;11.578;2024-02-23T12:53:09;0.70;;;0.30;;
58091;SDS011;43896;48.178;11.578;2024-02-23T12:55:54;2.08;;;0.50;;
58091;SDS011;43896;48.178;11.578;2024-02-23T12:58:20;1.95;;;0.40;;
58091;SDS011;43896;48.178;11.578;2024-02-23T13:00:45;2.83;;;0.30;;
58091;SDS011;43896;48.178;11.578;2024-02-23T13:03:10;3.05;;;0.60;;
58091;SDS011;43896;48.178;11.578;2024-02-23T13:05:36;2.05;;;0.40;;
58091;SDS011;43896;48.178;11.578;2024-02-23T13:08:02;1.38;;;0.40;;
58091;SDS011;43896;48.178;11.578;2024-02-23T13:10:28;1.13;;;0.40;;
58091;SDS011;43896;48.178;11.578;2024-02-23T13:12:53;1.30;;;0.22;;
58091;SDS011;43896;48.178;11.578;2024-02-23T13:15:18;1.30;;;0.40;;
58091;SDS011;43896;48.178;11.578;2024-02-23T13:17:44;2.47;;;0.90;;
58091;SDS011;43896;48.178;11.578;2024-02-23T13:20:09;0.90;;;0.22;;
58091;SDS011;43896;48.178;11.578;2024-02-23T13:22:37;1.65;;;0.35;;
58091;SDS011;43896;48.178;11.578;2024-02-23T13:25:03;0.93;;;0.30;;
58091;SDS011;43896;48.178;11.578;2024-02-23T13:27:29;1.75;;;0.30;;
58091;SDS011;43896;48.178;11.578;2024-02-23T13:29:54;1.70;;;0.50;;
58091;SDS011;43896;48.178;11.578;2024-02-23T13:32:20;2.60;;;0.63;;
58091;SDS011;43896;48.178;11.578;2024-02-23T13:34:45;0.50;;;0.13;;
58091;SDS011;43896;48.178;11.578;2024-02-23T13:37:11;1.20;;;0.25;;
58091;SDS011;43896;48.178;11.578;2024-02-23T13:39:37;0.75;;;0.20;;
58091;SDS011;43896;48.178;11.578;2024-02-23T13:42:02;1.05;;;0.30;;
58091;SDS011;43896;48.178;11.578;2024-02-23T13:44:30;1.08;;;0.20;;
58091;SDS011;43896;48.178;11.578;2024-02-23T13:46:56;1.13;;;0.40;;
58091;SDS011;43896;48.178;11.578;2024-02-23T13:49:21;0.80;;;0.20;;
58091;SDS011;43896;48.178;11.578;2024-02-23T13:51:47;2.38;;;0.20;;
58091;SDS011;43896;48.178;11.578;2024-02-23T13:54:20;0.82;;;0.20;;
58091;SDS011;43896;48.178;11.578;2024-02-23T13:56:56;2.70;;;0.40;;
58091;SDS011;43896;48.178;11.578;2024-02-23T13:59:21;0.82;;;0.30;;
58091;SDS011;43896;48.178;11.578;2024-02-23T14:01:46;2.28;;;0.40;;
58091;SDS011;43896;48.178;11.578;2024-02-23T14:04:12;4.13;;;0.30;;
58091;SDS011;43896;48.178;11.578;2024-02-23T14:06:37;1.48;;;0.17;;
58091;SDS011;43896;48.178;11.578;2024-02-23T14:09:03;0.88;;;0.30;;
58091;SDS011;43896;48.178;11.578;2024-02-23T14:11:32;2.22;;;0.20;;
58091;SDS011;43896;48.178;11.578;2024-02-23T14:13:57;0.60;;;0.20;;
58091;SDS011;43896;48.178;11.578;2024-02-23T14:19:19;0.68;;;0.20;;
58091;SDS011;43896;48.178;11.578;2024-02-23T14:21:45;2.25;;;0.63;;
58091;SDS011;43896;48.178;11.578;2024-02-23T14:24:12;1.83;;;0.35;;
58091;SDS011;43896;48.178;11.578;2024-02-23T14:26:37;3.20;;;0.50;;
58091;SDS011;43896;48.178;11.578;2024-02-23T14:29:02;0.88;;;0.30;;
58091;SDS011;43896;48.178;11.578;2024-02-23T14:31:28;0.85;;;0.30;;
58091;SDS011;43896;48.178;11.578;2024-02-23T14:33:53;0.95;;;0.30;;